Time;durP1;ratioP1;P1;durP2;ratioP2;P2;SDS_P1;SDS_P2;PMS_P1;PMS_P2;Temp;Humidity;BMP_temperature;BMP_pressure;BME280_temperature;BME280_humidity;BME280_pressure;Samples;Min_cycle;Max_cycle;Signal;HPM_P1;HPM_P2
2020/12/29 00:00:58;;;;;;;1.08;0.75;;;;;;;0.66;92.54;93695.75;4934080;29;20122;-80
2020/12/29 00:03:24;;;;;;;1.27;0.73;;;;;;;0.49;92.02;93684.06;4943380;29;20142;-79
2020/12/29 00:05:51;;;;;;;1.90;1.42;;;;;;;0.53;92.19;93689.44;4940191;29;20098;-80
2020/12/29 00:08:17;;;;;;;1.80;1.10;;;;;;;0.49;92.80;93678.97;4933856;29;20031;-80
2020/12/29 00:10:43;;;;;;;1.48;1.08;;;;;;;0.67;92.72;93697.25;4919355;29;20031;-80
2020/12/29 00:13:09;;;;;;;1.40;1.00;;;;;;;0.65;92.20;93697.56;4965050;28;20031;-79
2020/12/29 00:15:39;;;;;;;1.67;1.13;;;;;;;0.44;93.06;93691.78;4934047;29;20042;-79
2020/12/29 00:18:05;;;;;;;1.42;1.33;;;;;;;0.70;92.34;93699.28;4933155;29;20478;-81
2020/12/29 00:20:31;;;;;;;1.75;1.25;;;;;;;0.61;92.14;93681.19;4951104;28;20410;-79
2020/12/29 00:22:58;;;;;;;1.38;1.05;;;;;;;0.58;92.48;93688.63;4950000;28;20034;-81
2020/12/29 00:25:23;;;;;;;2.63;1.30;;;;;;;0.65;92.50;93689.09;4949419;29;20542;-80
2020/12/29 00:27:49;;;;;;;3.53;1.73;;;;;;;0.62;92.59;93681.94;4949288;28;20486;-80
2020/12/29 00:30:15;;;;;;;3.25;1.58;;;;;;;0.64;92.63;93687.56;4932858;28;20102;-80
2020/12/29 00:32:41;;;;;;;2.38;1.88;;;;;;;0.65;92.41;93683.97;4964841;28;20399;-80
2020/12/29 00:35:07;;;;;;;2.28;1.63;;;;;;;0.64;92.25;93680.66;4923231;29;20090;-79
2020/12/29 00:37:32;;;;;;;1.90;1.65;;;;;;;0.63;93.04;93684.22;4936835;29;20031;-79
2020/12/29 00:39:58;;;;;;;3.85;2.10;;;;;;;0.67;92.71;93687.81;4950869;29;21055;-80
2020/12/29 00:42:24;;;;;;;2.30;1.80;;;;;;;0.72;92.89;93682.63;4949160;28;20391;-80
2020/12/29 00:44:50;;;;;;;3.05;1.95;;;;;;;0.69;92.53;93684.97;4937474;29;20168;-81
2020/12/29 00:47:18;;;;;;;3.20;2.22;;;;;;;0.74;92.25;93674.69;4939868;28;20081;-81
2020/12/29 00:49:44;;;;;;;2.15;1.60;;;;;;;0.70;92.25;93683.94;4965486;28;20069;-80
2020/12/29 00:52:10;;;;;;;3.55;2.28;;;;;;;0.67;92.51;93687.03;4965208;28;20416;-81
2020/12/29 00:54:36;;;;;;;3.42;2.53;;;;;;;0.66;92.69;93691.38;4962283;28;20032;-81
2020/12/29 00:57:02;;;;;;;2.67;2.30;;;;;;;0.35;93.19;93678.03;4942822;28;20106;-81
2020/12/29 00:59:29;;;;;;;3.60;2.25;;;;;;;0.55;92.91;93687.38;4954567;28;20051;-83
2020/12/29 01:01:58;;;;;;;3.95;2.20;;;;;;;0.44;93.38;93673.88;4942824;28;20037;-81
2020/12/29 01:04:24;;;;;;;3.13;1.80;;;;;;;0.52;93.01;93683.56;4937940;29;21017;-81
2020/12/29 01:06:50;;;;;;;3.20;2.03;;;;;;;0.45;93.46;93680.53;4941428;29;20038;-81
2020/12/29 01:09:16;;;;;;;3.28;2.13;;;;;;;0.51;92.88;93682.00;4950656;29;20050;-82
2020/12/29 01:11:42;;;;;;;3.38;2.53;;;;;;;0.53;93.42;93681.75;4941613;29;20065;-81
2020/12/29 01:14:08;;;;;;;3.10;2.03;;;;;;;0.57;93.06;93685.31;4951848;29;20035;-80
2020/12/29 01:16:34;;;;;;;3.78;2.65;;;;;;;0.56;93.18;93678.66;4939444;29;20113;-80
2020/12/29 01:19:01;;;;;;;4.13;2.28;;;;;;;0.64;93.41;93679.91;4951167;28;20037;-80
2020/12/29 01:21:27;;;;;;;4.03;2.50;;;;;;;0.71;93.15;93680.34;4925738;29;20039;-80
2020/12/29 01:23:52;;;;;;;3.17;2.10;;;;;;;0.64;93.17;93680.66;4966547;28;20160;-80
2020/12/29 01:26:23;;;;;;;3.13;1.88;;;;;;;0.64;93.65;93687.56;4931535;28;20058;-80
2020/12/29 01:28:50;;;;;;;4.68;2.33;;;;;;;0.56;93.07;93674.28;4935948;29;20415;-82
2020/12/29 01:31:27;;;;;;;3.60;1.83;;;;;;;0.64;93.11;93679.91;4936473;29;20117;-81
2020/12/29 01:33:53;;;;;;;2.63;2.13;;;;;;;0.62;93.68;93679.38;4943810;29;20050;-78
2020/12/29 01:36:19;;;;;;;2.85;1.50;;;;;;;0.77;93.41;93688.75;4902750;29;20066;-78
2020/12/29 01:38:45;;;;;;;3.00;2.17;;;;;;;0.66;93.59;93688.81;4951790;28;20463;-78
2020/12/29 01:41:10;;;;;;;2.08;1.65;;;;;;;0.72;93.16;93689.53;4948360;29;20093;-78
2020/12/29 01:43:38;;;;;;;3.05;2.03;;;;;;;0.60;93.47;93676.31;4951669;28;20031;-81
2020/12/29 01:46:03;;;;;;;2.85;1.90;;;;;;;0.64;93.29;93680.66;4929313;29;20118;-80
2020/12/29 01:48:29;;;;;;;4.38;2.38;;;;;;;0.73;93.60;93684.16;4939958;29;20439;-81
2020/12/29 01:50:56;;;;;;;2.97;1.70;;;;;;;0.64;93.57;93672.22;4950977;28;20050;-80
2020/12/29 01:53:21;;;;;;;3.38;2.33;;;;;;;0.67;93.29;93687.03;4934164;29;20035;-80
2020/12/29 01:55:47;;;;;;;3.15;1.83;;;;;;;0.68;93.64;93691.88;4935612;29;20034;-80
2020/12/29 01:58:13;;;;;;;2.65;1.63;;;;;;;0.68;93.47;93684.19;4931830;29;20035;-80
2020/12/29 02:00:38;;;;;;;3.47;1.67;;;;;;;0.68;93.29;93684.19;4930973;29;20019;-80
2020/12/29 02:03:09;;;;;;;2.63;1.33;;;;;;;0.66;93.12;93677.81;4935353;29;20059;-80
2020/12/29 02:05:35;;;;;;;2.75;1.20;;;;;;;0.66;93.23;93677.81;4933833;29;20051;-81
2020/12/29 02:08:02;;;;;;;1.73;1.38;;;;;;;0.69;93.38;93674.72;4944610;28;20050;-83
2020/12/29 02:10:27;;;;;;;2.33;1.30;;;;;;;0.73;93.31;93683.41;4949426;28;20043;-81
2020/12/29 02:12:56;;;;;;;2.63;1.25;;;;;;;0.68;93.18;93680.88;4974670;28;20466;-81
2020/12/29 02:15:22;;;;;;;1.80;1.10;;;;;;;0.76;93.41;93697.47;4968780;28;20046;-81
2020/12/29 02:17:51;;;;;;;1.60;0.90;;;;;;;0.70;93.24;93689.03;4923920;29;20042;-81
2020/12/29 02:20:17;;;;;;;1.70;1.05;;;;;;;0.75;93.52;93696.69;4926855;29;20554;-82
2020/12/29 02:22:42;;;;;;;1.70;0.90;;;;;;;0.66;93.68;93690.63;4956575;28;20035;-78
2020/12/29 02:25:10;;;;;;;1.17;0.90;;;;;;;0.74;93.68;93695.19;4937223;29;20050;-79
2020/12/29 02:27:48;;;;;;;1.75;1.08;;;;;;;0.63;93.59;93693.72;4948143;28;20034;-80
2020/12/29 02:30:15;;;;;;;2.50;1.17;;;;;;;0.76;93.53;93708.47;4925825;28;20058;-78
2020/12/29 02:32:40;;;;;;;2.33;0.70;;;;;;;0.65;93.35;93704.44;4951107;28;20042;-78
2020/12/29 02:35:08;;;;;;;1.30;0.70;;;;;;;0.72;93.57;93715.13;4918217;29;20039;-79
2020/12/29 02:37:33;;;;;;;2.03;0.60;;;;;;;0.71;93.68;93703.38;4931120;29;20041;-79
2020/12/29 02:39:59;;;;;;;1.15;0.77;;;;;;;0.74;93.57;93710.53;4952957;29;20039;-78
2020/12/29 02:42:25;;;;;;;1.15;0.40;;;;;;;0.79;93.84;93727.63;4926213;28;20090;-78
2020/12/29 02:44:51;;;;;;;1.23;0.50;;;;;;;0.65;93.33;93718.03;4945019;28;20031;-78
2020/12/29 02:47:16;;;;;;;1.73;0.40;;;;;;;0.78;93.37;93721.75;4918709;29;20038;-80
2020/12/29 02:49:42;;;;;;;1.35;0.40;;;;;;;0.74;93.52;93726.66;4946290;28;20038;-81
2020/12/29 02:52:08;;;;;;;1.25;0.55;;;;;;;0.72;93.31;93728.72;4943039;28;20031;-79
2020/12/29 02:54:34;;;;;;;0.90;0.40;;;;;;;0.74;93.00;93736.16;4950496;28;20083;-80
2020/12/29 02:57:02;;;;;;;0.75;0.38;;;;;;;0.73;93.68;93739.72;4955579;28;20051;-80
2020/12/29 02:59:29;;;;;;;0.43;0.32;;;;;;;0.72;92.53;93745.88;4915396;28;20046;-83
2020/12/29 03:01:55;;;;;;;1.15;0.35;;;;;;;0.71;92.81;93752.03;4945048;29;20046;-82
2020/12/29 03:04:20;;;;;;;1.63;0.28;;;;;;;0.62;92.80;93748.50;4935244;29;20102;-80
2020/12/29 03:06:46;;;;;;;0.50;0.30;;;;;;;0.53;92.15;93749.06;4944658;29;20062;-80
2020/12/29 03:09:13;;;;;;;0.60;0.30;;;;;;;0.56;92.57;93751.09;4953242;29;20523;-84
2020/12/29 03:11:39;;;;;;;0.93;0.20;;;;;;;0.61;92.40;93759.78;4968125;28;20019;-80
2020/12/29 03:14:07;;;;;;;0.80;0.20;;;;;;;0.61;91.90;93764.91;4961479;28;20066;-80
2020/12/29 03:16:35;;;;;;;0.90;0.10;;;;;;;0.49;92.40;93760.09;4952111;28;20035;-82
2020/12/29 03:19:02;;;;;;;1.02;0.13;;;;;;;0.44;92.49;93760.88;4932732;29;20035;-82
2020/12/29 03:21:28;;;;;;;1.45;0.13;;;;;;;0.51;92.61;93769.03;4941643;28;20114;-79
2020/12/29 03:23:54;;;;;;;0.73;0.17;;;;;;;0.51;92.03;93773.41;4937043;28;20038;-81
2020/12/29 03:26:26;;;;;;;0.45;0.10;;;;;;;0.43;92.51;93769.63;4920215;29;20027;-80
2020/12/29 03:28:53;;;;;;;0.10;0.10;;;;;;;0.35;92.87;93780.41;4935672;28;20043;-80
2020/12/29 03:31:19;;;;;;;0.43;0.10;;;;;;;0.41;92.48;93783.69;4915115;29;20498;-80
2020/12/29 03:33:46;;;;;;;1.13;0.15;;;;;;;0.49;92.47;93796.69;4952491;28;20046;-80
2020/12/29 03:36:12;;;;;;;0.25;0.10;;;;;;;0.37;92.46;93801.38;4948056;28;20085;-80
2020/12/29 03:38:38;;;;;;;0.90;0.10;;;;;;;0.31;92.89;93815.19;4911438;28;20027;-80
2020/12/29 03:41:04;;;;;;;0.22;0.20;;;;;;;0.27;92.36;93814.19;4948055;29;20042;-80
2020/12/29 03:43:31;;;;;;;0.32;0.10;;;;;;;0.38;92.74;93831.06;4931181;29;20031;-81
2020/12/29 03:45:58;;;;;;;0.10;0.10;;;;;;;0.32;92.41;93837.97;4949671;29;20094;-79
2020/12/29 03:48:26;;;;;;;0.20;0.10;;;;;;;0.18;92.97;93837.00;4945893;28;20055;-79
2020/12/29 03:50:52;;;;;;;0.30;0.10;;;;;;;0.27;92.83;93852.56;4927128;29;20058;-80
2020/12/29 03:53:19;;;;;;;0.13;0.08;;;;;;;0.14;93.06;93851.34;4943272;29;20333;-81
2020/12/29 03:55:46;;;;;;;0.88;0.10;;;;;;;0.23;92.17;93854.13;4948380;29;20082;-80
2020/12/29 03:58:13;;;;;;;0.10;0.10;;;;;;;0.22;92.59;93857.72;4963282;28;20090;-79
2020/12/29 04:00:42;;;;;;;0.00;0.00;;;;;;;0.20;92.62;93864.88;4940787;29;20036;-80
2020/12/29 04:03:08;;;;;;;1.30;0.10;;;;;;;0.19;92.89;93869.25;4946571;29;20059;-80
2020/12/29 04:05:34;;;;;;;0.40;0.03;;;;;;;0.25;92.57;93880.22;4931077;29;20052;-80
2020/12/29 04:08:00;;;;;;;0.03;0.00;;;;;;;0.20;92.60;93885.34;4931353;29;20027;-80
2020/12/29 04:10:26;;;;;;;0.50;0.00;;;;;;;0.13;92.60;93886.38;4916395;29;20039;-80
2020/12/29 04:12:52;;;;;;;0.00;0.00;;;;;;;0.07;93.41;93900.22;4948157;29;20044;-79
2020/12/29 04:15:22;;;;;;;0.30;0.20;;;;;;;0.16;93.04;93908.88;4952996;28;20039;-81
2020/12/29 04:17:49;;;;;;;0.30;0.20;;;;;;;0.19;93.01;93910.19;4916852;28;20061;-80
2020/12/29 04:20:17;;;;;;;0.20;0.20;;;;;;;0.16;93.31;93919.13;4951671;28;20394;-80
2020/12/29 04:22:44;;;;;;;0.45;0.30;;;;;;;0.15;92.64;93920.13;4947849;28;20034;-82
2020/12/29 04:25:10;;;;;;;1.13;0.30;;;;;;;0.11;92.92;93918.38;4938383;29;20055;-80
2020/12/29 04:27:40;;;;;;;1.30;0.30;;;;;;;0.13;92.63;93922.19;4934228;29;20470;-80
2020/12/29 04:30:06;;;;;;;1.38;0.30;;;;;;;0.19;92.92;93933.19;4966888;28;20482;-80
2020/12/29 04:32:32;;;;;;;1.10;0.50;;;;;;;0.23;92.49;93930.88;4919269;28;20086;-80
2020/12/29 04:34:59;;;;;;;0.98;0.73;;;;;;;0.11;92.27;93928.59;4968772;28;20031;-80
2020/12/29 04:37:25;;;;;;;1.08;0.82;;;;;;;0.23;92.09;93933.44;4946857;28;20050;-80
2020/12/29 04:39:51;;;;;;;0.90;0.50;;;;;;;0.15;92.29;93945.72;4932008;28;20516;-80
2020/12/29 04:42:19;;;;;;;1.40;0.70;;;;;;;0.26;92.54;93950.81;4945062;28;20066;-79
2020/12/29 04:44:46;;;;;;;1.00;0.70;;;;;;;0.16;92.86;93956.75;4939527;28;20071;-80
2020/12/29 04:47:12;;;;;;;0.70;0.60;;;;;;;0.20;92.83;93959.53;4948900;28;20545;-80
2020/12/29 04:49:39;;;;;;;0.90;0.70;;;;;;;0.11;92.81;93960.06;4929730;28;20544;-79
2020/12/29 04:52:07;;;;;;;1.27;0.65;;;;;;;0.13;93.26;93973.34;4938548;28;20110;-79
2020/12/29 04:54:35;;;;;;;0.80;0.63;;;;;;;0.16;93.55;93983.06;4968800;28;20026;-80
2020/12/29 04:57:04;;;;;;;1.10;0.75;;;;;;;0.10;93.33;93980.78;4940351;28;20023;-80
2020/12/29 04:59:31;;;;;;;0.98;0.80;;;;;;;0.20;93.26;93980.78;4945692;28;20023;-81
2020/12/29 05:01:58;;;;;;;1.45;1.15;;;;;;;0.12;93.23;93987.19;4948751;28;20035;-80
2020/12/29 05:04:24;;;;;;;1.30;1.02;;;;;;;0.08;93.15;93993.81;4964091;28;20094;-80
2020/12/29 05:06:53;;;;;;;1.35;0.98;;;;;;;0.11;93.54;94005.34;4931191;29;20039;-80
2020/12/29 05:09:26;;;;;;;1.77;1.30;;;;;;;0.07;92.96;94006.88;4963526;28;20039;-80
2020/12/29 05:11:53;;;;;;;1.83;1.15;;;;;;;0.09;93.45;94015.84;4932416;29;20031;-80
2020/12/29 05:14:20;;;;;;;1.77;1.35;;;;;;;0.03;93.63;94014.28;4947531;29;20023;-80
2020/12/29 05:16:46;;;;;;;1.38;1.10;;;;;;;0.10;93.58;94026.81;4956960;28;20031;-80
2020/12/29 05:19:15;;;;;;;1.30;1.00;;;;;;;0.11;93.42;94031.69;4953728;28;20509;-80
2020/12/29 05:21:41;;;;;;;1.67;1.55;;;;;;;0.18;92.88;94041.66;4943819;28;20030;-80
2020/12/29 05:24:17;;;;;;;1.35;0.95;;;;;;;0.14;93.44;94035.53;4949425;29;20106;-80
2020/12/29 05:26:47;;;;;;;1.20;1.10;;;;;;;0.28;93.09;94053.69;4963820;28;20090;-80
2020/12/29 05:29:14;;;;;;;1.40;1.25;;;;;;;0.30;92.90;94057.53;4942543;29;20117;-81
2020/12/29 05:31:43;;;;;;;2.35;2.08;;;;;;;0.06;93.58;94069.28;4947064;28;20622;-80
2020/12/29 05:34:24;;;;;;;1.50;1.00;;;;;;;-0.02;93.67;94068.00;4951168;28;20034;-81
2020/12/29 05:36:50;;;;;;;1.58;1.10;;;;;;;-0.01;93.52;94079.75;4944892;29;20359;-80
2020/12/29 05:39:17;;;;;;;1.13;0.88;;;;;;;0.05;93.90;94083.84;4943035;28;20035;-80
2020/12/29 05:41:45;;;;;;;1.45;1.00;;;;;;;-0.01;93.51;94088.19;4954985;28;20113;-80
2020/12/29 05:44:33;;;;;;;2.05;1.35;;;;;;;-0.01;93.67;94090.00;4949812;28;20026;-80
2020/12/29 05:47:01;;;;;;;1.80;1.30;;;;;;;0.06;93.44;94113.53;4933773;29;20023;-81
2020/12/29 05:49:28;;;;;;;2.97;1.73;;;;;;;0.07;93.28;94109.97;4922160;29;20461;-78
2020/12/29 05:51:55;;;;;;;1.92;1.63;;;;;;;0.16;93.47;94123.03;4936126;29;20098;-77
2020/12/29 05:54:23;;;;;;;2.75;1.98;;;;;;;0.08;93.53;94124.28;4952104;29;20057;-78
2020/12/29 05:56:49;;;;;;;2.35;1.73;;;;;;;0.09;93.19;94123.25;4935258;29;20062;-77
2020/12/29 05:59:16;;;;;;;2.80;2.25;;;;;;;0.12;93.51;94135.56;4950492;29;20458;-78
2020/12/29 06:01:44;;;;;;;2.17;1.70;;;;;;;0.16;93.69;94136.56;4933149;29;20330;-78
2020/12/29 06:04:12;;;;;;;3.60;2.45;;;;;;;0.21;93.61;94150.38;4932813;29;20086;-81
2020/12/29 06:06:43;;;;;;;3.15;1.95;;;;;;;0.17;93.16;94152.69;4933491;29;20057;-79
2020/12/29 06:09:16;;;;;;;3.05;2.05;;;;;;;0.16;93.48;94156.28;4919824;29;20605;-79
2020/12/29 06:11:51;;;;;;;3.30;2.40;;;;;;;0.15;93.35;94170.09;4951460;29;20196;-80
2020/12/29 06:14:23;;;;;;;3.17;2.50;;;;;;;0.25;93.74;94177.03;4949030;28;20085;-79
2020/12/29 06:16:49;;;;;;;3.13;2.40;;;;;;;0.26;93.39;94178.53;4947587;28;20175;-80
2020/12/29 06:19:31;;;;;;;2.45;2.10;;;;;;;0.24;93.42;94185.69;4944390;28;20066;-80
2020/12/29 06:22:10;;;;;;;2.92;2.20;;;;;;;0.17;93.10;94176.50;4942358;28;20569;-80
2020/12/29 06:24:43;;;;;;;4.57;2.28;;;;;;;0.23;93.43;94187.50;4949942;29;20035;-80
2020/12/29 06:27:10;;;;;;;3.22;2.15;;;;;;;0.26;93.32;94199.00;4947959;28;20031;-80
2020/12/29 06:29:38;;;;;;;2.83;2.15;;;;;;;0.24;93.06;94199.28;4939732;29;20027;-80
2020/12/29 06:32:12;;;;;;;2.17;1.80;;;;;;;0.16;93.48;94208.22;4966249;28;20447;-81
2020/12/29 06:34:38;;;;;;;2.65;2.17;;;;;;;0.32;93.10;94218.47;4953733;28;20031;-80
2020/12/29 06:37:16;;;;;;;3.10;2.35;;;;;;;0.35;92.66;94217.97;4945706;29;20040;-80
2020/12/29 06:39:45;;;;;;;2.38;1.98;;;;;;;0.45;92.85;94222.38;4941468;29;20035;-80
2020/12/29 06:42:12;;;;;;;3.17;2.45;;;;;;;0.42;93.03;94226.19;4949854;29;20027;-80
2020/12/29 06:44:38;;;;;;;3.75;2.45;;;;;;;0.45;92.91;94233.38;4928387;29;20035;-80
2020/12/29 06:47:08;;;;;;;3.30;2.45;;;;;;;0.39;93.09;94248.97;4946852;28;20041;-80
2020/12/29 06:49:35;;;;;;;3.13;2.40;;;;;;;0.50;92.29;94248.72;4948910;28;20480;-81
2020/12/29 06:52:13;;;;;;;2.67;2.22;;;;;;;0.47;92.63;94264.59;4946188;28;20035;-80
2020/12/29 06:54:52;;;;;;;5.03;2.85;;;;;;;0.43;92.97;94273.00;4971026;28;20042;-81
2020/12/29 06:57:25;;;;;;;3.80;2.55;;;;;;;0.45;92.80;94276.88;4929152;29;20471;-79
2020/12/29 06:59:51;;;;;;;3.58;2.65;;;;;;;0.52;93.10;94290.19;4946101;29;20062;-80
2020/12/29 07:02:22;;;;;;;3.63;2.78;;;;;;;0.52;92.31;94297.88;4942878;28;20051;-80
2020/12/29 07:04:53;;;;;;;3.97;3.00;;;;;;;0.44;92.87;94289.91;4950195;29;20070;-80
2020/12/29 07:07:32;;;;;;;3.95;3.22;;;;;;;0.36;93.02;94309.06;4908769;29;20066;-80
2020/12/29 07:09:59;;;;;;;3.78;2.90;;;;;;;0.47;93.09;94305.53;4928024;28;20027;-80
2020/12/29 07:12:28;;;;;;;4.18;3.17;;;;;;;0.61;92.68;94320.44;4922709;29;20481;-79
2020/12/29 07:14:59;;;;;;;5.38;3.72;;;;;;;0.63;92.57;94326.06;4947194;29;20074;-80
2020/12/29 07:17:25;;;;;;;4.35;3.55;;;;;;;0.47;93.25;94318.34;4928196;29;20023;-81
2020/12/29 07:19:54;;;;;;;4.90;3.35;;;;;;;0.51;93.14;94333.97;4937605;28;20171;-80
2020/12/29 07:22:19;;;;;;;6.70;4.05;;;;;;;0.60;92.77;94344.50;4947757;28;20038;-80
2020/12/29 07:24:46;;;;;;;5.05;3.55;;;;;;;0.49;92.92;94341.13;4953940;28;20066;-80
2020/12/29 07:27:14;;;;;;;3.47;3.00;;;;;;;0.53;92.54;94345.50;4945560;29;20039;-80
2020/12/29 07:30:00;;;;;;;4.20;3.33;;;;;;;0.60;92.71;94358.09;4942230;29;20483;-80
2020/12/29 07:32:27;;;;;;;4.30;3.22;;;;;;;0.58;92.65;94357.53;4948234;28;20042;-81
2020/12/29 07:34:53;;;;;;;4.35;3.45;;;;;;;0.55;92.23;94366.50;4946139;29;20644;-80
2020/12/29 07:37:20;;;;;;;3.70;2.90;;;;;;;0.59;92.93;94364.22;4957698;28;20487;-80
2020/12/29 07:39:47;;;;;;;4.47;3.08;;;;;;;0.59;92.77;94373.69;4937922;28;20594;-81
2020/12/29 07:42:14;;;;;;;4.63;2.85;;;;;;;0.50;92.85;94376.72;4966126;28;20098;-81
2020/12/29 07:44:40;;;;;;;3.65;2.88;;;;;;;0.63;92.81;94390.09;4945279;29;20031;-80
2020/12/29 07:47:06;;;;;;;3.28;2.35;;;;;;;0.56;92.40;94401.31;4949947;29;20391;-80
2020/12/29 07:49:33;;;;;;;4.05;2.70;;;;;;;0.58;92.69;94402.88;4944012;29;20023;-80
2020/12/29 07:51:59;;;;;;;4.03;2.65;;;;;;;0.58;92.78;94424.09;4942968;29;20049;-80
2020/12/29 07:54:25;;;;;;;4.07;2.97;;;;;;;0.48;92.91;94435.09;4963391;28;20551;-80
2020/12/29 07:56:52;;;;;;;4.25;3.22;;;;;;;0.43;92.86;94436.81;4945736;29;20035;-80
2020/12/29 07:59:19;;;;;;;3.22;2.92;;;;;;;0.53;93.04;94442.78;4944786;28;20110;-80
2020/12/29 08:01:48;;;;;;;3.42;2.83;;;;;;;0.47;93.00;94448.88;4940506;28;20044;-80
2020/12/29 08:04:24;;;;;;;3.40;2.53;;;;;;;0.53;92.52;94459.91;4961140;28;20101;-80
2020/12/29 08:06:50;;;;;;;3.05;2.40;;;;;;;0.60;93.05;94469.94;4943071;29;20051;-81
2020/12/29 08:09:16;;;;;;;3.10;2.00;;;;;;;0.49;92.90;94472.44;4956536;28;20053;-80
2020/12/29 08:11:43;;;;;;;2.22;1.80;;;;;;;0.53;92.64;94478.63;4952468;28;20145;-80
2020/12/29 08:14:09;;;;;;;3.58;2.08;;;;;;;0.65;92.50;94487.91;4934766;28;20097;-80
2020/12/29 08:16:35;;;;;;;3.05;2.40;;;;;;;0.54;92.66;94487.06;4936981;28;20046;-80
2020/12/29 08:19:01;;;;;;;3.33;1.90;;;;;;;0.45;92.77;94486.75;4967000;28;20038;-81
2020/12/29 08:21:33;;;;;;;2.35;1.70;;;;;;;0.40;92.68;94496.97;4930449;29;20055;-80
2020/12/29 08:24:00;;;;;;;1.60;1.42;;;;;;;0.56;92.63;94513.19;4959741;28;20035;-80
2020/12/29 08:26:26;;;;;;;1.35;1.23;;;;;;;0.54;92.05;94518.56;4932533;29;20027;-80
2020/12/29 08:28:52;;;;;;;1.58;1.05;;;;;;;0.56;92.34;94528.56;4933794;29;20143;-80
2020/12/29 08:31:19;;;;;;;1.92;1.17;;;;;;;0.63;91.59;94530.91;4949358;28;20030;-80
2020/12/29 08:33:47;;;;;;;1.35;1.25;;;;;;;0.61;92.15;94550.88;4952447;28;20382;-79
2020/12/29 08:36:22;;;;;;;1.40;1.13;;;;;;;0.59;92.40;94552.91;4964287;28;20023;-80
2020/12/29 08:39:00;;;;;;;1.77;1.13;;;;;;;0.57;92.43;94558.28;4945598;29;20024;-80
2020/12/29 08:41:36;;;;;;;1.90;1.50;;;;;;;0.58;92.09;94566.72;4950818;29;20046;-81
2020/12/29 08:44:02;;;;;;;2.20;1.60;;;;;;;0.60;92.27;94562.91;4947549;28;20027;-80
2020/12/29 08:46:33;;;;;;;1.40;1.30;;;;;;;0.62;92.06;94583.13;4948954;28;20035;-80
2020/12/29 08:49:03;;;;;;;1.95;1.38;;;;;;;0.65;91.93;94583.44;4951208;28;20447;-80
2020/12/29 08:51:30;;;;;;;2.08;1.40;;;;;;;0.58;91.84;94589.75;4950473;28;20045;-80
2020/12/29 08:54:21;;;;;;;2.20;1.30;;;;;;;0.60;92.09;94605.63;4947770;28;20109;-80
2020/12/29 08:56:46;;;;;;;2.40;1.40;;;;;;;0.50;92.64;94602.00;4964258;28;20066;-79
2020/12/29 08:59:14;;;;;;;2.28;1.90;;;;;;;0.55;92.51;94624.31;4949623;28;20058;-80
2020/12/29 09:01:45;;;;;;;2.33;1.90;;;;;;;0.54;92.90;94622.75;4964416;28;20540;-80
2020/12/29 09:04:28;;;;;;;2.45;1.85;;;;;;;0.56;92.50;94636.09;4952298;28;20054;-80
2020/12/29 09:07:13;;;;;;;3.05;1.80;;;;;;;0.62;92.60;94639.44;4966566;28;20392;-80
2020/12/29 09:09:58;;;;;;;3.58;2.10;;;;;;;0.69;92.58;94645.16;4945574;29;20066;-80
2020/12/29 09:12:34;;;;;;;2.88;2.03;;;;;;;0.52;92.52;94646.03;4931424;28;20576;-80
2020/12/29 09:15:04;;;;;;;3.78;2.85;;;;;;;0.60;92.42;94656.84;4951099;28;20529;-80
2020/12/29 09:17:31;;;;;;;3.90;2.80;;;;;;;0.66;92.58;94655.88;4969713;28;20027;-80
2020/12/29 09:20:19;;;;;;;3.80;2.78;;;;;;;0.71;92.48;94668.75;4953564;28;20482;-80
2020/12/29 09:22:51;;;;;;;5.07;3.45;;;;;;;0.66;92.43;94671.25;4927819;29;20127;-80
2020/12/29 09:25:32;;;;;;;5.28;3.53;;;;;;;0.61;92.51;94677.09;4953953;29;20037;-80
2020/12/29 09:28:09;;;;;;;5.35;3.28;;;;;;;0.70;92.54;94697.91;4950583;28;20070;-80
2020/12/29 09:30:38;;;;;;;4.55;3.20;;;;;;;0.72;93.02;94695.88;4957253;28;20023;-81
2020/12/29 09:33:05;;;;;;;6.93;3.72;;;;;;;0.80;92.41;94708.25;4969905;28;20073;-81
2020/12/29 09:35:31;;;;;;;5.95;3.97;;;;;;;0.72;92.56;94701.78;4952130;29;20035;-81
2020/12/29 09:37:59;;;;;;;5.65;3.63;;;;;;;0.90;92.37;94720.38;4949703;29;20249;-80
2020/12/29 09:40:26;;;;;;;5.65;3.60;;;;;;;0.91;92.61;94719.38;4951012;28;20023;-81
2020/12/29 09:42:52;;;;;;;4.50;3.33;;;;;;;0.88;92.25;94730.09;4955555;28;20031;-81
2020/12/29 09:45:18;;;;;;;5.25;3.28;;;;;;;0.90;92.30;94736.50;4903410;29;20047;-80
2020/12/29 09:47:44;;;;;;;5.47;3.40;;;;;;;0.84;92.82;94729.03;4943856;28;20805;-81
2020/12/29 09:50:10;;;;;;;5.88;3.80;;;;;;;0.93;92.61;94735.25;4955082;28;20061;-81
2020/12/29 09:52:35;;;;;;;5.30;3.60;;;;;;;0.95;92.30;94740.16;4938718;28;20053;-81
2020/12/29 09:55:03;;;;;;;5.97;3.40;;;;;;;0.97;92.67;94750.91;4953145;28;20121;-81
2020/12/29 09:57:29;;;;;;;4.88;3.33;;;;;;;1.03;92.53;94752.50;4951326;28;20027;-81
2020/12/29 09:59:55;;;;;;;4.80;2.95;;;;;;;1.02;92.25;94761.22;4932554;29;20547;-81
2020/12/29 10:02:21;;;;;;;5.25;3.17;;;;;;;0.99;92.17;94759.91;4948732;28;20188;-82
2020/12/29 10:04:47;;;;;;;4.28;2.60;;;;;;;0.93;92.28;94769.34;4943655;29;20058;-81
2020/12/29 10:07:13;;;;;;;5.25;2.80;;;;;;;0.92;92.01;94774.69;4951503;29;20039;-82
2020/12/29 10:09:39;;;;;;;3.78;2.63;;;;;;;1.03;92.20;94781.47;4944364;28;20038;-81
2020/12/29 10:12:04;;;;;;;3.75;2.38;;;;;;;1.00;91.94;94783.75;4939077;28;20031;-80
2020/12/29 10:14:33;;;;;;;4.55;2.80;;;;;;;0.97;92.26;94784.22;4927685;29;20061;-82
2020/12/29 10:17:02;;;;;;;3.58;2.35;;;;;;;0.97;91.95;94794.47;4966564;28;20364;-81
2020/12/29 10:19:28;;;;;;;4.80;2.85;;;;;;;1.06;92.50;94798.13;4952509;29;20498;-81
2020/12/29 10:21:55;;;;;;;4.38;2.58;;;;;;;0.98;92.31;94803.69;4917753;29;20035;-81
2020/12/29 10:24:22;;;;;;;2.90;1.92;;;;;;;0.99;92.64;94810.38;4943136;29;20039;-81
2020/12/29 10:26:49;;;;;;;3.65;2.40;;;;;;;1.16;91.98;94817.97;4926639;29;20074;-81
2020/12/29 10:29:17;;;;;;;4.72;2.95;;;;;;;1.04;92.05;94813.75;4935519;28;20058;-80
2020/12/29 10:31:43;;;;;;;5.75;2.90;;;;;;;1.10;92.24;94804.34;4948981;28;20461;-81
2020/12/29 10:34:16;;;;;;;6.53;2.33;;;;;;;1.16;92.57;94818.72;4954190;28;20031;-81
2020/12/29 10:36:42;;;;;;;5.30;2.95;;;;;;;1.04;92.07;94820.66;4945313;28;20037;-80
2020/12/29 10:39:09;;;;;;;4.93;2.50;;;;;;;1.12;91.47;94822.81;4966455;28;20031;-83
2020/12/29 10:41:37;;;;;;;4.32;2.17;;;;;;;1.12;91.81;94825.38;4952930;28;20039;-81
2020/12/29 10:44:04;;;;;;;3.78;2.10;;;;;;;1.10;91.77;94828.16;4946693;29;20111;-81
2020/12/29 10:46:30;;;;;;;5.35;3.13;;;;;;;1.12;91.88;94828.69;4952566;28;20301;-82
2020/12/29 10:48:56;;;;;;;8.98;4.03;;;;;;;1.10;91.95;94820.47;4966991;28;20031;-81
2020/12/29 10:51:24;;;;;;;7.35;4.00;;;;;;;1.20;91.61;94832.63;4951750;29;20031;-81
2020/12/29 10:53:51;;;;;;;4.70;2.95;;;;;;;1.08;91.45;94829.41;4932555;28;20019;-81
2020/12/29 10:56:18;;;;;;;5.78;3.13;;;;;;;1.07;91.89;94845.81;4947998;29;20431;-82
2020/12/29 10:58:44;;;;;;;6.20;3.13;;;;;;;1.07;92.34;94840.69;4953895;28;20031;-81
2020/12/29 11:01:11;;;;;;;9.88;2.95;;;;;;;1.14;91.77;94843.06;4949027;28;20418;-82
2020/12/29 11:03:37;;;;;;;8.82;3.05;;;;;;;1.21;91.79;94846.97;4950458;28;20133;-81
2020/12/29 11:06:03;;;;;;;5.38;2.83;;;;;;;1.16;91.83;94854.59;4937359;28;20502;-81
2020/12/29 11:08:29;;;;;;;6.35;3.15;;;;;;;1.12;91.94;94848.44;4935058;28;20179;-82
2020/12/29 11:10:56;;;;;;;5.07;3.10;;;;;;;1.08;91.70;94852.47;4954057;28;20482;-82
2020/12/29 11:13:22;;;;;;;5.35;3.13;;;;;;;1.23;92.37;94860.31;4945238;29;20027;-81
2020/12/29 11:15:51;;;;;;;6.25;3.15;;;;;;;1.23;91.95;94864.66;4963023;28;20089;-81
2020/12/29 11:18:18;;;;;;;8.43;3.05;;;;;;;1.31;92.15;94869.38;4952171;28;20058;-80
2020/12/29 11:20:50;;;;;;;6.05;2.80;;;;;;;1.21;91.71;94864.91;4953073;28;20022;-81
2020/12/29 11:23:16;;;;;;;6.18;3.10;;;;;;;1.24;91.44;94866.22;4944581;28;20478;-80
2020/12/29 11:25:42;;;;;;;4.97;2.75;;;;;;;1.27;91.77;94874.22;4952788;28;20031;-81
2020/12/29 11:28:08;;;;;;;3.90;2.28;;;;;;;1.26;91.56;94874.44;4937190;28;20026;-81
2020/12/29 11:30:34;;;;;;;5.82;2.60;;;;;;;1.30;91.20;94878.84;4936734;28;20022;-81
2020/12/29 11:32:59;;;;;;;6.45;2.80;;;;;;;1.26;91.70;94869.31;4937148;28;20042;-81
2020/12/29 11:35:25;;;;;;;9.07;3.38;;;;;;;1.42;91.59;94888.16;4953289;28;20070;-80
2020/12/29 11:37:51;;;;;;;4.45;2.08;;;;;;;1.40;91.66;94885.84;4943676;28;20038;-80
2020/12/29 11:40:16;;;;;;;8.15;2.58;;;;;;;1.44;91.53;94892.06;4950404;28;20093;-81
2020/12/29 11:42:42;;;;;;;7.50;2.50;;;;;;;1.42;91.53;94883.03;4952556;28;20027;-80
2020/12/29 11:45:08;;;;;;;5.28;2.30;;;;;;;1.41;91.25;94889.97;4938129;28;20038;-80